sensor_id;sensor_type;location;lat;lon;timestamp;pressure;altitude;pressure_sealevel;temperature;humidity
63954;BME280;50128;52.094;5.232;2022-09-19T00:00:51;101705.0;;;9.28;99.67
63954;BME280;50128;52.094;5.232;2022-09-19T00:04:06;101702.0;;;9.3;99.48
63954;BME280;50128;52.094;5.232;2022-09-19T00:05:47;101695.0;;;9.35;99.43
63954;BME280;50128;52.094;5.232;2022-09-19T00:07:23;101698.0;;;9.41;99.33
63954;BME280;50128;52.094;5.232;2022-09-19T00:08:59;101700.0;;;9.42;99.43
63954;BME280;50128;52.094;5.232;2022-09-19T00:12:15;101698.0;;;9.52;99.5
63954;BME280;50128;52.094;5.232;2022-09-19T00:13:54;101701.0;;;9.58;99.41
63954;BME280;50128;52.094;5.232;2022-09-19T00:15:35;101705.0;;;9.89;98.87
63954;BME280;50128;52.094;5.232;2022-09-19T00:17:11;101709.0;;;9.91;98.78
63954;BME280;50128;52.094;5.232;2022-09-19T00:20:28;101705.0;;;10.03;98.31
63954;BME280;50128;52.094;5.232;2022-09-19T00:22:05;101709.0;;;10.05;98.24
63954;BME280;50128;52.094;5.232;2022-09-19T00:24:46;101712.0;;;10.01;98.63
63954;BME280;50128;52.094;5.232;2022-09-19T00:26:23;101711.0;;;10.0;98.62
63954;BME280;50128;52.094;5.232;2022-09-19T00:27:59;101711.0;;;10.05;98.32
63954;BME280;50128;52.094;5.232;2022-09-19T00:31:19;101709.0;;;9.99;98.76
63954;BME280;50128;52.094;5.232;2022-09-19T00:32:59;101713.0;;;10.02;98.46
63954;BME280;50128;52.094;5.232;2022-09-19T00:34:36;101715.0;;;10.06;98.53
63954;BME280;50128;52.094;5.232;2022-09-19T00:36:16;101716.0;;;10.11;98.4
63954;BME280;50128;52.094;5.232;2022-09-19T00:39:30;101718.0;;;10.21;98.07
63954;BME280;50128;52.094;5.232;2022-09-19T00:41:10;101722.0;;;10.23;98.3
63954;BME280;50128;52.094;5.232;2022-09-19T00:42:49;101719.0;;;10.22;98.81
63954;BME280;50128;52.094;5.232;2022-09-19T00:45:00;101722.0;;;10.4;98.02
63954;BME280;50128;52.094;5.232;2022-09-19T00:46:37;101724.0;;;10.39;97.97
63954;BME280;50128;52.094;5.232;2022-09-19T00:49:57;101726.0;;;10.31;98.46
63954;BME280;50128;52.094;5.232;2022-09-19T00:51:40;101724.0;;;10.31;98.69
63954;BME280;50128;52.094;5.232;2022-09-19T00:53:22;101724.0;;;10.27;98.65
63954;BME280;50128;52.094;5.232;2022-09-19T00:54:59;101725.0;;;10.23;98.77
63954;BME280;50128;52.094;5.232;2022-09-19T00:58:22;101723.0;;;10.14;98.96
63954;BME280;50128;52.094;5.232;2022-09-19T01:00:02;101726.0;;;10.09;98.78
63954;BME280;50128;52.094;5.232;2022-09-19T01:01:40;101721.0;;;10.01;98.8
63954;BME280;50128;52.094;5.232;2022-09-19T01:03:17;101717.0;;;9.97;99.27
63954;BME280;50128;52.094;5.232;2022-09-19T01:06:39;101721.0;;;9.9;98.8
63954;BME280;50128;52.094;5.232;2022-09-19T01:08:34;101717.0;;;9.81;98.4
63954;BME280;50128;52.094;5.232;2022-09-19T01:11:03;101718.0;;;9.75;98.17
63954;BME280;50128;52.094;5.232;2022-09-19T01:12:53;101723.0;;;9.75;98.55
63954;BME280;50128;52.094;5.232;2022-09-19T01:14:51;101722.0;;;9.68;98.05
63954;BME280;50128;52.094;5.232;2022-09-19T01:16:52;101722.0;;;9.65;97.54
63954;BME280;50128;52.094;5.232;2022-09-19T01:18:40;101723.0;;;9.57;97.59
63954;BME280;50128;52.094;5.232;2022-09-19T01:20:32;101725.0;;;9.51;97.75
63954;BME280;50128;52.094;5.232;2022-09-19T01:22:52;101726.0;;;9.46;98.02
63954;BME280;50128;52.094;5.232;2022-09-19T01:24:54;101726.0;;;9.39;98.33
63954;BME280;50128;52.094;5.232;2022-09-19T01:26:43;101728.0;;;9.33;98.54
63954;BME280;50128;52.094;5.232;2022-09-19T01:28:30;101730.0;;;9.24;98.29
63954;BME280;50128;52.094;5.232;2022-09-19T01:31:51;101731.0;;;9.23;98.73
63954;BME280;50128;52.094;5.232;2022-09-19T01:33:30;101738.0;;;9.15;98.73
63954;BME280;50128;52.094;5.232;2022-09-19T01:35:10;101739.0;;;9.09;98.94
63954;BME280;50128;52.094;5.232;2022-09-19T01:36:51;101738.0;;;9.1;98.62
63954;BME280;50128;52.094;5.232;2022-09-19T01:40:19;101734.0;;;9.03;99.22
63954;BME280;50128;52.094;5.232;2022-09-19T01:41:59;101740.0;;;8.99;99.35
63954;BME280;50128;52.094;5.232;2022-09-19T01:43:35;101733.0;;;8.97;98.91
63954;BME280;50128;52.094;5.232;2022-09-19T01:45:12;101733.0;;;8.97;99.58
63954;BME280;50128;52.094;5.232;2022-09-19T01:48:53;101739.0;;;8.92;98.99
63954;BME280;50128;52.094;5.232;2022-09-19T01:50:43;101736.0;;;8.83;98.87
63954;BME280;50128;52.094;5.232;2022-09-19T01:52:42;101739.0;;;8.85;98.99
63954;BME280;50128;52.094;5.232;2022-09-19T01:54:31;101735.0;;;8.8;98.71
63954;BME280;50128;52.094;5.232;2022-09-19T01:56:15;101738.0;;;8.8;98.58
63954;BME280;50128;52.094;5.232;2022-09-19T01:58:02;101739.0;;;8.74;98.9
63954;BME280;50128;52.094;5.232;2022-09-19T01:59:46;101742.0;;;8.76;98.91
63954;BME280;50128;52.094;5.232;2022-09-19T02:03:19;101743.0;;;8.8;98.78
63954;BME280;50128;52.094;5.232;2022-09-19T02:05:05;101742.0;;;8.81;98.7
63954;BME280;50128;52.094;5.232;2022-09-19T02:06:49;101749.0;;;8.82;98.6
63954;BME280;50128;52.094;5.232;2022-09-19T02:08:32;101745.0;;;8.78;98.47
63954;BME280;50128;52.094;5.232;2022-09-19T02:10:16;101753.0;;;8.76;98.37
63954;BME280;50128;52.094;5.232;2022-09-19T02:13:37;101755.0;;;8.77;98.45
63954;BME280;50128;52.094;5.232;2022-09-19T02:15:14;101753.0;;;8.77;98.59
63954;BME280;50128;52.094;5.232;2022-09-19T02:17:02;101757.0;;;8.73;98.63
63954;BME280;50128;52.094;5.232;2022-09-19T02:18:46;101755.0;;;8.73;99.23
63954;BME280;50128;52.094;5.232;2022-09-19T02:22:07;101755.0;;;8.68;98.74
63954;BME280;50128;52.094;5.232;2022-09-19T02:23:50;101760.0;;;8.61;99.04
63954;BME280;50128;52.094;5.232;2022-09-19T02:25:31;101763.0;;;8.61;98.76
63954;BME280;50128;52.094;5.232;2022-09-19T02:27:15;101763.0;;;8.61;98.9
63954;BME280;50128;52.094;5.232;2022-09-19T02:30:36;101764.0;;;8.57;99.19
63954;BME280;50128;52.094;5.232;2022-09-19T02:32:15;101766.0;;;8.57;99.22
63954;BME280;50128;52.094;5.232;2022-09-19T02:33:57;101770.0;;;8.56;98.57
63954;BME280;50128;52.094;5.232;2022-09-19T02:35:43;101770.0;;;8.57;98.97
63954;BME280;50128;52.094;5.232;2022-09-19T02:37:28;101769.0;;;8.56;98.62
63954;BME280;50128;52.094;5.232;2022-09-19T02:41:00;101766.0;;;8.56;98.8
63954;BME280;50128;52.094;5.232;2022-09-19T02:42:47;101767.0;;;8.57;99.33
63954;BME280;50128;52.094;5.232;2022-09-19T02:44:30;101770.0;;;8.58;99.23
63954;BME280;50128;52.094;5.232;2022-09-19T02:46:16;101769.0;;;8.65;99.41
63954;BME280;50128;52.094;5.232;2022-09-19T02:47:59;101764.0;;;8.69;99.89
63954;BME280;50128;52.094;5.232;2022-09-19T02:51:26;101766.0;;;8.81;99.45
63954;BME280;50128;52.094;5.232;2022-09-19T02:53:13;101765.0;;;8.89;99.92
63954;BME280;50128;52.094;5.232;2022-09-19T02:54:54;101765.0;;;8.97;99.98
63954;BME280;50128;52.094;5.232;2022-09-19T02:56:36;101766.0;;;9.01;100.0
63954;BME280;50128;52.094;5.232;2022-09-19T02:58:17;101769.0;;;9.13;99.77
63954;BME280;50128;52.094;5.232;2022-09-19T03:01:41;101765.0;;;9.15;100.0
63954;BME280;50128;52.094;5.232;2022-09-19T03:04:29;101765.0;;;9.21;100.0
63954;BME280;50128;52.094;5.232;2022-09-19T03:06:09;101767.0;;;9.18;100.0
63954;BME280;50128;52.094;5.232;2022-09-19T03:07:53;101765.0;;;9.21;99.81
63954;BME280;50128;52.094;5.232;2022-09-19T03:09:31;101771.0;;;9.24;99.31
63954;BME280;50128;52.094;5.232;2022-09-19T03:11:12;101769.0;;;9.21;99.35
63954;BME280;50128;52.094;5.232;2022-09-19T03:14:32;101768.0;;;9.17;99.57
63954;BME280;50128;52.094;5.232;2022-09-19T03:16:12;101770.0;;;9.13;99.3
63954;BME280;50128;52.094;5.232;2022-09-19T03:17:52;101775.0;;;9.11;98.81
63954;BME280;50128;52.094;5.232;2022-09-19T03:19:31;101772.0;;;9.08;98.33
63954;BME280;50128;52.094;5.232;2022-09-19T03:22:49;101771.0;;;9.06;98.18
63954;BME280;50128;52.094;5.232;2022-09-19T03:24:28;101774.0;;;9.02;98.16
63954;BME280;50128;52.094;5.232;2022-09-19T03:26:06;101768.0;;;9.02;98.46
63954;BME280;50128;52.094;5.232;2022-09-19T03:27:44;101770.0;;;9.0;98.45
63954;BME280;50128;52.094;5.232;2022-09-19T03:30:59;101768.0;;;8.98;98.65
63954;BME280;50128;52.094;5.232;2022-09-19T03:32:37;101773.0;;;8.94;98.52
63954;BME280;50128;52.094;5.232;2022-09-19T03:34:15;101775.0;;;8.93;98.67
63954;BME280;50128;52.094;5.232;2022-09-19T03:37:33;101770.0;;;8.94;98.67
63954;BME280;50128;52.094;5.232;2022-09-19T03:39:09;101771.0;;;8.92;98.28
63954;BME280;50128;52.094;5.232;2022-09-19T03:40:45;101774.0;;;8.86;98.12
63954;BME280;50128;52.094;5.232;2022-09-19T03:42:22;101773.0;;;8.86;97.95
63954;BME280;50128;52.094;5.232;2022-09-19T03:45:37;101775.0;;;8.81;98.28
63954;BME280;50128;52.094;5.232;2022-09-19T03:47:16;101776.0;;;8.74;98.31
63954;BME280;50128;52.094;5.232;2022-09-19T03:48:52;101776.0;;;8.75;98.3
63954;BME280;50128;52.094;5.232;2022-09-19T03:52:05;101777.0;;;8.76;98.26
63954;BME280;50128;52.094;5.232;2022-09-19T03:53:43;101778.0;;;8.8;98.56
63954;BME280;50128;52.094;5.232;2022-09-19T03:55:19;101780.0;;;8.85;98.04
63954;BME280;50128;52.094;5.232;2022-09-19T03:56:56;101778.0;;;8.93;97.95
63954;BME280;50128;52.094;5.232;2022-09-19T04:00:12;101780.0;;;8.98;99.07
63954;BME280;50128;52.094;5.232;2022-09-19T04:01:48;101786.0;;;9.05;99.02
63954;BME280;50128;52.094;5.232;2022-09-19T04:03:24;101789.0;;;9.06;99.44
63954;BME280;50128;52.094;5.232;2022-09-19T04:06:40;101789.0;;;9.08;99.44
63954;BME280;50128;52.094;5.232;2022-09-19T04:08:17;101784.0;;;9.1;99.53
63954;BME280;50128;52.094;5.232;2022-09-19T04:09:54;101785.0;;;9.1;99.18
63954;BME280;50128;52.094;5.232;2022-09-19T04:11:30;101783.0;;;9.06;99.15
63954;BME280;50128;52.094;5.232;2022-09-19T04:14:43;101790.0;;;9.01;98.41
63954;BME280;50128;52.094;5.232;2022-09-19T04:16:19;101793.0;;;8.97;98.22
63954;BME280;50128;52.094;5.232;2022-09-19T04:17:56;101792.0;;;8.91;98.71
63954;BME280;50128;52.094;5.232;2022-09-19T04:21:08;101792.0;;;8.86;98.6
63954;BME280;50128;52.094;5.232;2022-09-19T04:22:44;101792.0;;;8.82;99.1
63954;BME280;50128;52.094;5.232;2022-09-19T04:24:26;101798.0;;;8.74;99.02
63954;BME280;50128;52.094;5.232;2022-09-19T04:27:44;101802.0;;;8.69;98.92
63954;BME280;50128;52.094;5.232;2022-09-19T04:29:20;101805.0;;;8.74;99.82
63954;BME280;50128;52.094;5.232;2022-09-19T04:30:56;101799.0;;;8.74;99.38
63954;BME280;50128;52.094;5.232;2022-09-19T04:32:33;101799.0;;;8.71;99.26
63954;BME280;50128;52.094;5.232;2022-09-19T04:35:50;101805.0;;;8.74;99.03
63954;BME280;50128;52.094;5.232;2022-09-19T04:37:27;101805.0;;;8.71;99.18
63954;BME280;50128;52.094;5.232;2022-09-19T04:39:03;101800.0;;;8.67;98.5
63954;BME280;50128;52.094;5.232;2022-09-19T04:42:22;101803.0;;;8.64;99.46
63954;BME280;50128;52.094;5.232;2022-09-19T04:43:58;101809.0;;;8.56;99.73
63954;BME280;50128;52.094;5.232;2022-09-19T04:45:36;101810.0;;;8.57;99.3
63954;BME280;50128;52.094;5.232;2022-09-19T04:47:14;101811.0;;;8.56;98.97
63954;BME280;50128;52.094;5.232;2022-09-19T04:50:32;101812.0;;;8.53;98.86
63954;BME280;50128;52.094;5.232;2022-09-19T04:52:12;101814.0;;;8.56;99.37
63954;BME280;50128;52.094;5.232;2022-09-19T04:53:48;101815.0;;;8.52;99.22
63954;BME280;50128;52.094;5.232;2022-09-19T04:57:01;101817.0;;;8.56;99.06
63954;BME280;50128;52.094;5.232;2022-09-19T04:58:40;101821.0;;;8.56;98.81
63954;BME280;50128;52.094;5.232;2022-09-19T05:00:37;101825.0;;;8.55;99.2
63954;BME280;50128;52.094;5.232;2022-09-19T05:02:13;101827.0;;;8.51;98.81
63954;BME280;50128;52.094;5.232;2022-09-19T05:03:49;101830.0;;;8.5;98.82
63954;BME280;50128;52.094;5.232;2022-09-19T05:07:02;101825.0;;;8.48;98.91
63954;BME280;50128;52.094;5.232;2022-09-19T05:08:40;101822.0;;;8.44;99.27
63954;BME280;50128;52.094;5.232;2022-09-19T05:10:16;101826.0;;;8.43;98.98
63954;BME280;50128;52.094;5.232;2022-09-19T05:13:34;101827.0;;;8.49;99.65
63954;BME280;50128;52.094;5.232;2022-09-19T05:15:12;101832.0;;;8.52;99.97
63954;BME280;50128;52.094;5.232;2022-09-19T05:16:50;101836.0;;;8.55;99.59
63954;BME280;50128;52.094;5.232;2022-09-19T05:18:27;101836.0;;;8.55;99.26
63954;BME280;50128;52.094;5.232;2022-09-19T05:21:43;101830.0;;;8.63;99.67
63954;BME280;50128;52.094;5.232;2022-09-19T05:23:24;101834.0;;;8.72;99.43
63954;BME280;50128;52.094;5.232;2022-09-19T05:25:03;101836.0;;;8.75;99.8
63954;BME280;50128;52.094;5.232;2022-09-19T05:28:19;101840.0;;;8.84;99.82
63954;BME280;50128;52.094;5.232;2022-09-19T05:29:59;101841.0;;;8.94;99.82
63954;BME280;50128;52.094;5.232;2022-09-19T05:31:36;101843.0;;;9.03;99.8
63954;BME280;50128;52.094;5.232;2022-09-19T05:33:12;101838.0;;;9.09;99.76
63954;BME280;50128;52.094;5.232;2022-09-19T05:36:27;101846.0;;;9.07;99.65
63954;BME280;50128;52.094;5.232;2022-09-19T05:38:04;101847.0;;;9.07;99.9
63954;BME280;50128;52.094;5.232;2022-09-19T05:39:40;101849.0;;;9.14;100.0
63954;BME280;50128;52.094;5.232;2022-09-19T05:42:59;101851.0;;;9.23;100.0
63954;BME280;50128;52.094;5.232;2022-09-19T05:44:35;101853.0;;;9.31;100.0
63954;BME280;50128;52.094;5.232;2022-09-19T05:46:12;101851.0;;;9.43;100.0
63954;BME280;50128;52.094;5.232;2022-09-19T05:47:49;101855.0;;;9.51;100.0
63954;BME280;50128;52.094;5.232;2022-09-19T05:51:02;101859.0;;;9.55;100.0
63954;BME280;50128;52.094;5.232;2022-09-19T05:55:31;101857.0;;;9.8;100.0
63954;BME280;50128;52.094;5.232;2022-09-19T05:57:06;101858.0;;;9.98;99.71
63954;BME280;50128;52.094;5.232;2022-09-19T05:58:43;101860.0;;;10.02;99.83
63954;BME280;50128;52.094;5.232;2022-09-19T06:00:20;101861.0;;;10.06;100.0
63954;BME280;50128;52.094;5.232;2022-09-19T06:03:34;101863.0;;;10.33;99.79
63954;BME280;50128;52.094;5.232;2022-09-19T06:05:11;101862.0;;;10.59;98.93
63954;BME280;50128;52.094;5.232;2022-09-19T06:06:48;101867.0;;;10.71;99.2
63954;BME280;50128;52.094;5.232;2022-09-19T06:10:01;101874.0;;;10.91;99.08
63954;BME280;50128;52.094;5.232;2022-09-19T06:11:37;101875.0;;;11.11;99.07
63954;BME280;50128;52.094;5.232;2022-09-19T06:13:16;101871.0;;;11.34;98.64
63954;BME280;50128;52.094;5.232;2022-09-19T06:16:28;101872.0;;;11.42;98.66
63954;BME280;50128;52.094;5.232;2022-09-19T06:18:05;101872.0;;;11.5;98.72
63954;BME280;50128;52.094;5.232;2022-09-19T06:19:42;101880.0;;;11.61;98.2
63954;BME280;50128;52.094;5.232;2022-09-19T06:21:18;101882.0;;;11.79;97.87
63954;BME280;50128;52.094;5.232;2022-09-19T06:24:32;101880.0;;;11.94;97.27
63954;BME280;50128;52.094;5.232;2022-09-19T06:26:09;101883.0;;;11.97;97.21
63954;BME280;50128;52.094;5.232;2022-09-19T06:27:52;101881.0;;;12.08;96.8
63954;BME280;50128;52.094;5.232;2022-09-19T06:31:08;101885.0;;;12.13;96.5
63954;BME280;50128;52.094;5.232;2022-09-19T06:32:44;101894.0;;;12.18;95.83
63954;BME280;50128;52.094;5.232;2022-09-19T06:34:21;101894.0;;;12.27;95.86
63954;BME280;50128;52.094;5.232;2022-09-19T06:35:59;101897.0;;;12.45;95.22
63954;BME280;50128;52.094;5.232;2022-09-19T06:39:13;101898.0;;;12.5;95.46
63954;BME280;50128;52.094;5.232;2022-09-19T06:40:49;101895.0;;;12.64;95.11
63954;BME280;50128;52.094;5.232;2022-09-19T06:42:25;101899.0;;;12.77;94.92
63954;BME280;50128;52.094;5.232;2022-09-19T06:45:39;101900.0;;;12.71;94.15
63954;BME280;50128;52.094;5.232;2022-09-19T06:47:16;101896.0;;;12.72;93.6
63954;BME280;50128;52.094;5.232;2022-09-19T06:48:53;101899.0;;;12.77;94.09
63954;BME280;50128;52.094;5.232;2022-09-19T06:50:30;101896.0;;;12.82;94.07
63954;BME280;50128;52.094;5.232;2022-09-19T06:53:47;101905.0;;;12.98;93.52
63954;BME280;50128;52.094;5.232;2022-09-19T06:55:25;101908.0;;;12.93;93.5
63954;BME280;50128;52.094;5.232;2022-09-19T06:57:02;101909.0;;;12.93;93.27
63954;BME280;50128;52.094;5.232;2022-09-19T07:00:15;101907.0;;;13.02;92.97
63954;BME280;50128;52.094;5.232;2022-09-19T07:01:51;101910.0;;;13.01;92.82
63954;BME280;50128;52.094;5.232;2022-09-19T07:03:27;101910.0;;;13.12;92.3
63954;BME280;50128;52.094;5.232;2022-09-19T07:06:40;101917.0;;;13.15;92.32
63954;BME280;50128;52.094;5.232;2022-09-19T07:08:17;101916.0;;;13.11;92.31
63954;BME280;50128;52.094;5.232;2022-09-19T07:09:52;101913.0;;;13.19;92.08
63954;BME280;50128;52.094;5.232;2022-09-19T07:11:29;101917.0;;;13.32;92.29
63954;BME280;50128;52.094;5.232;2022-09-19T07:14:46;101915.0;;;13.37;92.32
63954;BME280;50128;52.094;5.232;2022-09-19T07:16:22;101915.0;;;13.48;92.22
63954;BME280;50128;52.094;5.232;2022-09-19T07:17:59;101914.0;;;13.49;92.11
63954;BME280;50128;52.094;5.232;2022-09-19T07:21:11;101919.0;;;13.65;91.95
63954;BME280;50128;52.094;5.232;2022-09-19T07:22:57;101916.0;;;13.62;92.37
63954;BME280;50128;52.094;5.232;2022-09-19T07:24:34;101923.0;;;13.72;91.86
63954;BME280;50128;52.094;5.232;2022-09-19T07:26:11;101926.0;;;13.84;90.94
63954;BME280;50128;52.094;5.232;2022-09-19T07:29:30;101927.0;;;14.0;90.99
63954;BME280;50128;52.094;5.232;2022-09-19T07:31:07;101925.0;;;14.08;91.61
63954;BME280;50128;52.094;5.232;2022-09-19T07:32:42;101931.0;;;14.07;90.57
63954;BME280;50128;52.094;5.232;2022-09-19T07:35:56;101930.0;;;14.06;91.28
63954;BME280;50128;52.094;5.232;2022-09-19T07:37:32;101927.0;;;14.13;90.26
63954;BME280;50128;52.094;5.232;2022-09-19T07:39:09;101930.0;;;14.1;90.81
63954;BME280;50128;52.094;5.232;2022-09-19T07:40:46;101931.0;;;14.19;90.65
63954;BME280;50128;52.094;5.232;2022-09-19T07:43:59;101928.0;;;14.22;89.75
63954;BME280;50128;52.094;5.232;2022-09-19T07:45:36;101934.0;;;14.25;88.74
63954;BME280;50128;52.094;5.232;2022-09-19T07:47:27;101935.0;;;14.31;88.68
63954;BME280;50128;52.094;5.232;2022-09-19T07:49:05;101939.0;;;14.37;88.38
63954;BME280;50128;52.094;5.232;2022-09-19T07:52:17;101941.0;;;14.3;87.88
63954;BME280;50128;52.094;5.232;2022-09-19T07:53:53;101945.0;;;14.37;86.53
63954;BME280;50128;52.094;5.232;2022-09-19T07:55:30;101953.0;;;14.35;87.43
63954;BME280;50128;52.094;5.232;2022-09-19T07:58:42;101955.0;;;14.18;88.62
63954;BME280;50128;52.094;5.232;2022-09-19T08:00:19;101956.0;;;14.32;88.27
63954;BME280;50128;52.094;5.232;2022-09-19T08:01:55;101959.0;;;14.36;88.06
63954;BME280;50128;52.094;5.232;2022-09-19T08:05:07;101960.0;;;14.32;89.19
63954;BME280;50128;52.094;5.232;2022-09-19T08:06:44;101962.0;;;14.45;87.52
63954;BME280;50128;52.094;5.232;2022-09-19T08:08:22;101960.0;;;14.42;87.37
63954;BME280;50128;52.094;5.232;2022-09-19T08:09:59;101968.0;;;14.43;86.99
63954;BME280;50128;52.094;5.232;2022-09-19T08:13:17;101964.0;;;14.44;87.15
63954;BME280;50128;52.094;5.232;2022-09-19T08:14:56;101962.0;;;14.46;87.43
63954;BME280;50128;52.094;5.232;2022-09-19T08:16:32;101967.0;;;14.58;87.18
63954;BME280;50128;52.094;5.232;2022-09-19T08:19:50;101970.0;;;14.62;87.11
63954;BME280;50128;52.094;5.232;2022-09-19T08:21:26;101969.0;;;14.66;86.86
63954;BME280;50128;52.094;5.232;2022-09-19T08:23:05;101976.0;;;14.72;85.87
63954;BME280;50128;52.094;5.232;2022-09-19T08:24:42;101971.0;;;14.78;85.41
63954;BME280;50128;52.094;5.232;2022-09-19T08:27:56;101971.0;;;14.74;84.28
63954;BME280;50128;52.094;5.232;2022-09-19T08:29:32;101970.0;;;14.78;85.06
63954;BME280;50128;52.094;5.232;2022-09-19T08:31:09;101971.0;;;14.94;85.25
63954;BME280;50128;52.094;5.232;2022-09-19T08:34:23;101974.0;;;15.08;84.28
63954;BME280;50128;52.094;5.232;2022-09-19T08:35:59;101970.0;;;15.21;85.41
63954;BME280;50128;52.094;5.232;2022-09-19T08:37:36;101967.0;;;15.36;84.1
63954;BME280;50128;52.094;5.232;2022-09-19T08:41:00;101978.0;;;15.56;84.0
63954;BME280;50128;52.094;5.232;2022-09-19T08:43:08;101986.0;;;15.6;83.79
63954;BME280;50128;52.094;5.232;2022-09-19T08:44:53;101990.0;;;15.5;83.24
63954;BME280;50128;52.094;5.232;2022-09-19T08:46:41;101995.0;;;15.27;82.08
63954;BME280;50128;52.094;5.232;2022-09-19T08:48:29;101994.0;;;15.19;84.69
63954;BME280;50128;52.094;5.232;2022-09-19T08:50:11;101992.0;;;15.08;85.76
63954;BME280;50128;52.094;5.232;2022-09-19T08:51:53;101993.0;;;14.92;86.58
63954;BME280;50128;52.094;5.232;2022-09-19T08:55:19;101992.0;;;14.81;86.29
63954;BME280;50128;52.094;5.232;2022-09-19T08:56:59;101995.0;;;14.62;88.71
63954;BME280;50128;52.094;5.232;2022-09-19T08:58:37;101995.0;;;14.32;90.17
63954;BME280;50128;52.094;5.232;2022-09-19T09:00:30;101996.0;;;14.31;89.91
63954;BME280;50128;52.094;5.232;2022-09-19T09:04:17;101996.0;;;14.42;90.45
63954;BME280;50128;52.094;5.232;2022-09-19T09:06:07;102002.0;;;14.51;90.89
63954;BME280;50128;52.094;5.232;2022-09-19T09:07:56;101996.0;;;14.64;91.55
63954;BME280;50128;52.094;5.232;2022-09-19T09:09:50;101995.0;;;14.68;92.81
63954;BME280;50128;52.094;5.232;2022-09-19T09:11:53;101994.0;;;14.74;91.03
63954;BME280;50128;52.094;5.232;2022-09-19T09:13:44;101994.0;;;14.88;90.99
63954;BME280;50128;52.094;5.232;2022-09-19T09:15:36;101993.0;;;14.97;91.06
63954;BME280;50128;52.094;5.232;2022-09-19T09:17:34;101993.0;;;15.03;91.62
63954;BME280;50128;52.094;5.232;2022-09-19T09:19:57;101995.0;;;15.08;89.01
63954;BME280;50128;52.094;5.232;2022-09-19T09:21:47;101996.0;;;15.13;85.7
63954;BME280;50128;52.094;5.232;2022-09-19T09:23:31;102001.0;;;15.17;85.11
63954;BME280;50128;52.094;5.232;2022-09-19T09:26:54;102005.0;;;15.21;84.41
63954;BME280;50128;52.094;5.232;2022-09-19T09:28:39;102005.0;;;15.14;82.37
63954;BME280;50128;52.094;5.232;2022-09-19T09:30:19;102005.0;;;15.0;81.05
63954;BME280;50128;52.094;5.232;2022-09-19T09:32:00;102005.0;;;15.09;82.62
63954;BME280;50128;52.094;5.232;2022-09-19T09:33:48;102008.0;;;14.98;83.87
63954;BME280;50128;52.094;5.232;2022-09-19T09:37:15;102008.0;;;15.0;83.07
63954;BME280;50128;52.094;5.232;2022-09-19T09:38:57;102009.0;;;14.91;82.3
63954;BME280;50128;52.094;5.232;2022-09-19T09:43:34;102015.0;;;15.04;81.05
63954;BME280;50128;52.094;5.232;2022-09-19T09:45:32;102017.0;;;15.01;81.44
63954;BME280;50128;52.094;5.232;2022-09-19T09:47:20;102017.0;;;15.08;80.33
63954;BME280;50128;52.094;5.232;2022-09-19T09:49:09;102018.0;;;15.13;80.84
63954;BME280;50128;52.094;5.232;2022-09-19T09:50:55;102019.0;;;15.1;83.74
63954;BME280;50128;52.094;5.232;2022-09-19T09:52:46;102021.0;;;15.12;82.18
63954;BME280;50128;52.094;5.232;2022-09-19T09:57:29;102019.0;;;15.05;82.54
63954;BME280;50128;52.094;5.232;2022-09-19T09:59:21;102013.0;;;15.25;81.96
63954;BME280;50128;52.094;5.232;2022-09-19T10:04:02;102017.0;;;15.45;84.7
63954;BME280;50128;52.094;5.232;2022-09-19T10:05:50;102021.0;;;15.44;84.21
63954;BME280;50128;52.094;5.232;2022-09-19T10:07:37;102020.0;;;15.64;82.67
63954;BME280;50128;52.094;5.232;2022-09-19T10:09:18;102018.0;;;15.55;83.47
63954;BME280;50128;52.094;5.232;2022-09-19T10:12:48;102009.0;;;15.48;81.96
63954;BME280;50128;52.094;5.232;2022-09-19T10:14:29;102008.0;;;15.43;81.52
63954;BME280;50128;52.094;5.232;2022-09-19T10:16:06;102013.0;;;15.47;82.4
63954;BME280;50128;52.094;5.232;2022-09-19T10:17:47;102016.0;;;15.6;82.58
63954;BME280;50128;52.094;5.232;2022-09-19T10:21:09;102019.0;;;15.78;82.14
63954;BME280;50128;52.094;5.232;2022-09-19T10:24:55;102026.0;;;15.9;80.58
63954;BME280;50128;52.094;5.232;2022-09-19T10:26:31;102049.0;;;15.82;79.66
63954;BME280;50128;52.094;5.232;2022-09-19T10:28:15;102051.0;;;15.43;80.34
63954;BME280;50128;52.094;5.232;2022-09-19T10:31:46;102048.0;;;15.26;79.11
63954;BME280;50128;52.094;5.232;2022-09-19T10:33:26;102050.0;;;15.1;78.94
63954;BME280;50128;52.094;5.232;2022-09-19T10:35:22;102040.0;;;14.78;80.28
63954;BME280;50128;52.094;5.232;2022-09-19T10:37:01;102040.0;;;14.65;82.36
63954;BME280;50128;52.094;5.232;2022-09-19T10:38:47;102034.0;;;14.5;85.79
63954;BME280;50128;52.094;5.232;2022-09-19T10:42:19;102032.0;;;14.38;86.53
63954;BME280;50128;52.094;5.232;2022-09-19T10:44:02;102033.0;;;14.22;85.41
63954;BME280;50128;52.094;5.232;2022-09-19T10:45:45;102033.0;;;14.15;87.39
63954;BME280;50128;52.094;5.232;2022-09-19T10:47:22;102037.0;;;14.12;87.2
63954;BME280;50128;52.094;5.232;2022-09-19T10:48:58;102032.0;;;14.18;86.2
63954;BME280;50128;52.094;5.232;2022-09-19T10:52:20;102030.0;;;14.3;87.03
63954;BME280;50128;52.094;5.232;2022-09-19T10:53:59;102034.0;;;14.23;88.84
63954;BME280;50128;52.094;5.232;2022-09-19T10:55:42;102030.0;;;14.29;90.53
63954;BME280;50128;52.094;5.232;2022-09-19T10:57:40;102026.0;;;14.47;90.63
63954;BME280;50128;52.094;5.232;2022-09-19T11:01:04;102032.0;;;14.72;91.04
63954;BME280;50128;52.094;5.232;2022-09-19T11:02:55;102028.0;;;14.82;89.1
63954;BME280;50128;52.094;5.232;2022-09-19T11:04:32;102033.0;;;14.88;86.7
63954;BME280;50128;52.094;5.232;2022-09-19T11:06:12;102039.0;;;14.98;86.2
63954;BME280;50128;52.094;5.232;2022-09-19T11:07:51;102038.0;;;14.87;83.65
63954;BME280;50128;52.094;5.232;2022-09-19T11:11:20;102040.0;;;14.98;84.67
63954;BME280;50128;52.094;5.232;2022-09-19T11:13:07;102039.0;;;14.94;86.34
63954;BME280;50128;52.094;5.232;2022-09-19T11:14:50;102036.0;;;14.92;85.95
63954;BME280;50128;52.094;5.232;2022-09-19T11:16:34;102036.0;;;15.01;84.05
63954;BME280;50128;52.094;5.232;2022-09-19T11:18:18;102034.0;;;15.06;83.96
63954;BME280;50128;52.094;5.232;2022-09-19T11:22:01;102031.0;;;15.03;84.05